Terminal Aerodrome Forecast
Issued by NWS

Home | Current Version | Previous Version | Text Only | Print | Product List | Glossary On
Versions: 1 2 3 4 5 6 7 8 9 10 11 12 13 14 15 16 17 18 19 20
000
FTUS43 KLSX 272000 AAA
TAFCPS
TAF AMD
KCPS 272039Z 2721/2818 04005KT P6SM VCTS SCT040CB BKN250
      TEMPO 2721/2722 27015G30KT 5SM -TSRA OVC040CB
     FM280100 VRB04KT P6SM BKN250
     FM280800 VRB04KT P6SM SCT100
      TEMPO 2808/2812 4SM BR
     FM281700 15005KT P6SM SCT040=

USA.gov is the U.S. government's official web portal to all federal, state and local government web resources and services.